Weather at Narita International Airport

Public forecast

Using degrees Celsius for public forecast. Weather courtesy of forecast.io.

Current aviation weather report (METAR) for Narita International Airport

Retrieved 2021/10/22 06:13 UTC (0 seconds ago):

RJAA 220613Z 36012KT 320V020 9999 -RA FEW003 SCT005 BKN007 12/12 Q1013 RMK 1ST003 3ST005 6ST007 A2994 MOD TURB OBS AT 0607Z OVER RUTAS BTN FL160 AND FL150 IN DES B789 JAL750

Aviation forecast (TAF) for Narita International Airport

Retrieved 2021/10/22 06:38 UTC (0 seconds ago):

TAF RJAA 220505Z 2206/2312 36012KT 8000 -RA FEW008 BKN015 TEMPO 2206/2215 4000 RA BR FEW002 BKN004